Time;durP1;ratioP1;P1;durP2;ratioP2;P2;SDS_P1;SDS_P2;PMS_P1;PMS_P2;Temp;Humidity;BMP_temperature;BMP_pressure;BME280_temperature;BME280_humidity;BME280_pressure;Samples;Min_cycle;Max_cycle;Signal;HPM_P1;HPM_P2
2023/10/20 00:00:40;;;;;;;1999.90;999.90;;;8.00;99.90;;;;;;5049597;28;20431;-66
2023/10/20 00:03:06;;;;;;;1999.90;999.90;;;8.00;99.90;;;;;;5042068;28;20167;-66
2023/10/20 00:05:33;;;;;;;1999.90;999.90;;;8.00;99.90;;;;;;5044465;28;20052;-66
2023/10/20 00:07:59;;;;;;;1999.90;999.90;;;8.00;99.90;;;;;;5049380;28;20124;-66
2023/10/20 00:10:26;;;;;;;1999.90;999.90;;;8.00;99.90;;;;;;5045449;28;20040;-66
2023/10/20 00:12:52;;;;;;;1999.90;999.90;;;8.00;99.90;;;;;;5045798;28;20045;-66
2023/10/20 00:15:17;;;;;;;1999.90;999.90;;;8.00;99.90;;;;;;5045961;28;20048;-65
2023/10/20 00:17:43;;;;;;;1999.90;999.90;;;8.00;99.90;;;;;;5044266;28;20045;-66
2023/10/20 00:20:09;;;;;;;1999.90;999.90;;;8.00;99.90;;;;;;5026379;28;20127;-66
2023/10/20 00:22:35;;;;;;;1999.90;999.90;;;8.00;99.90;;;;;;5029015;28;20040;-66
2023/10/20 00:25:01;;;;;;;1999.90;999.90;;;8.00;99.90;;;;;;5046339;28;20047;-66
2023/10/20 00:27:26;;;;;;;1999.90;999.90;;;8.00;99.90;;;;;;5038458;28;20049;-66
2023/10/20 00:29:52;;;;;;;1999.90;999.90;;;8.00;99.90;;;;;;5029280;28;20486;-66
2023/10/20 00:32:19;;;;;;;1999.90;999.90;;;8.00;99.90;;;;;;5049243;28;20044;-66
2023/10/20 00:34:45;;;;;;;1999.90;999.90;;;8.00;99.90;;;;;;5032853;28;20787;-66
2023/10/20 00:37:11;;;;;;;1999.90;999.90;;;8.00;99.90;;;;;;5048487;28;20148;-66
2023/10/20 00:39:36;;;;;;;1999.90;999.90;;;8.00;99.90;;;;;;5033809;28;20634;-66
2023/10/20 00:42:03;;;;;;;1999.90;999.90;;;8.00;99.90;;;;;;5038179;28;20049;-66
2023/10/20 00:44:28;;;;;;;1999.90;999.90;;;8.00;99.90;;;;;;5045711;28;20219;-66
2023/10/20 00:46:54;;;;;;;1999.90;999.90;;;8.00;99.90;;;;;;5044885;28;20123;-66
2023/10/20 00:49:20;;;;;;;1999.90;999.90;;;7.90;99.90;;;;;;5044577;28;20045;-66
2023/10/20 00:51:46;;;;;;;1999.90;999.90;;;8.00;99.90;;;;;;5042481;28;20053;-65
2023/10/20 00:54:14;;;;;;;1999.90;999.90;;;8.00;99.90;;;;;;5041259;28;20040;-67
2023/10/20 00:56:44;;;;;;;1999.90;999.90;;;8.00;99.90;;;;;;5037144;28;20045;-65
2023/10/20 00:59:10;;;;;;;1999.90;999.90;;;8.00;99.90;;;;;;5047491;28;20052;-66
2023/10/20 01:01:37;;;;;;;1999.90;999.90;;;8.00;99.90;;;;;;5053904;28;20512;-66
2023/10/20 01:04:03;;;;;;;1999.90;999.90;;;7.90;99.90;;;;;;5050610;28;20056;-66
2023/10/20 01:06:28;;;;;;;1999.90;999.90;;;8.00;99.90;;;;;;5044588;28;20045;-67
2023/10/20 01:08:58;;;;;;;1999.90;999.90;;;8.00;99.90;;;;;;5055286;28;20039;-66
2023/10/20 01:11:23;;;;;;;1999.90;999.90;;;8.00;99.90;;;;;;5049512;28;20045;-66
2023/10/20 01:13:50;;;;;;;1999.90;999.90;;;7.90;99.90;;;;;;5032117;28;20041;-66
2023/10/20 01:16:16;;;;;;;1999.90;999.90;;;8.00;99.90;;;;;;5043020;28;20051;-66
2023/10/20 01:18:43;;;;;;;1999.90;999.90;;;8.00;99.90;;;;;;5048948;28;20420;-66
2023/10/20 01:21:09;;;;;;;1999.90;999.90;;;8.00;99.90;;;;;;5045312;28;20041;-66
2023/10/20 01:23:34;;;;;;;1999.90;999.90;;;8.00;99.90;;;;;;5038695;28;20044;-66
2023/10/20 01:26:00;;;;;;;1999.90;999.90;;;8.00;99.90;;;;;;5046954;28;20117;-66
2023/10/20 01:28:25;;;;;;;1999.90;999.90;;;8.00;99.90;;;;;;5038372;28;20148;-66
2023/10/20 01:30:51;;;;;;;1999.90;999.90;;;8.00;99.90;;;;;;5048380;28;20035;-66
2023/10/20 01:33:17;;;;;;;1999.90;999.90;;;8.00;99.90;;;;;;5053125;28;20042;-66
2023/10/20 01:35:42;;;;;;;1999.90;999.90;;;8.00;99.90;;;;;;5046436;28;20055;-66
2023/10/20 01:38:08;;;;;;;1999.90;999.90;;;7.90;99.90;;;;;;5047649;28;20410;-65
2023/10/20 01:40:33;;;;;;;1999.90;999.90;;;8.00;99.90;;;;;;5061961;28;20041;-65
2023/10/20 01:42:59;;;;;;;1999.90;999.90;;;8.00;99.90;;;;;;5039324;28;20459;-66
2023/10/20 01:45:24;;;;;;;1999.90;999.90;;;8.00;99.90;;;;;;5043557;28;20520;-66
2023/10/20 01:47:50;;;;;;;1999.90;999.90;;;8.00;99.90;;;;;;5049482;28;20072;-66
2023/10/20 01:50:16;;;;;;;1999.90;999.90;;;7.90;99.90;;;;;;5047019;28;20047;-66
2023/10/20 01:52:42;;;;;;;1999.90;999.90;;;8.00;99.90;;;;;;5049978;28;20090;-65
2023/10/20 01:55:09;;;;;;;1999.90;999.90;;;8.00;99.90;;;;;;5041478;28;20056;-65
2023/10/20 01:57:35;;;;;;;1999.90;999.90;;;8.00;99.90;;;;;;5022227;28;20045;-66
2023/10/20 02:00:02;;;;;;;1999.90;999.90;;;8.00;99.90;;;;;;5046903;28;20033;-66
2023/10/20 02:02:27;;;;;;;1999.90;999.90;;;8.00;99.90;;;;;;5048258;28;20160;-66
2023/10/20 02:04:54;;;;;;;1999.90;999.90;;;8.00;99.90;;;;;;5037790;28;20115;-66
2023/10/20 02:07:20;;;;;;;1999.90;999.90;;;8.00;99.90;;;;;;5047424;28;20379;-65
2023/10/20 02:09:45;;;;;;;1999.90;999.90;;;8.00;99.90;;;;;;5031389;28;20039;-65
2023/10/20 02:12:13;;;;;;;1999.90;999.90;;;8.00;99.90;;;;;;5038414;28;20095;-66
2023/10/20 02:14:39;;;;;;;1999.90;999.90;;;8.00;99.90;;;;;;5048634;28;20036;-66
2023/10/20 02:17:05;;;;;;;1999.90;999.90;;;8.00;99.90;;;;;;5046698;28;20044;-66
2023/10/20 02:19:31;;;;;;;1999.90;999.90;;;8.00;99.90;;;;;;5055026;28;20482;-66
2023/10/20 02:21:59;;;;;;;1999.90;999.90;;;8.00;99.90;;;;;;5045519;28;20841;-65
2023/10/20 02:24:25;;;;;;;1999.90;999.90;;;8.00;99.90;;;;;;5047307;28;20393;-66
2023/10/20 02:26:51;;;;;;;1999.90;999.90;;;8.00;99.90;;;;;;5031381;28;20047;-66
2023/10/20 02:29:17;;;;;;;1999.90;999.90;;;8.00;99.90;;;;;;5045311;28;20041;-66
2023/10/20 02:31:43;;;;;;;1999.90;999.90;;;8.00;99.90;;;;;;5046690;28;20481;-66
2023/10/20 02:34:09;;;;;;;1999.90;999.90;;;8.00;99.90;;;;;;5048927;28;20401;-66
2023/10/20 02:36:35;;;;;;;1999.90;999.90;;;8.00;99.90;;;;;;5040976;28;20044;-66
2023/10/20 02:39:01;;;;;;;1999.90;999.90;;;8.00;99.90;;;;;;5040540;28;20113;-66
2023/10/20 02:41:28;;;;;;;1999.90;999.90;;;8.00;99.90;;;;;;5036265;28;20143;-66
2023/10/20 02:43:54;;;;;;;1999.90;999.90;;;8.00;99.90;;;;;;5048029;28;20458;-66
2023/10/20 02:46:19;;;;;;;1999.90;999.90;;;8.00;99.90;;;;;;5048913;28;20488;-66
2023/10/20 02:48:45;;;;;;;1999.90;999.90;;;8.00;99.90;;;;;;5030083;28;20062;-66
2023/10/20 02:51:15;;;;;;;1999.90;999.90;;;8.00;99.90;;;;;;5046126;28;20485;-66
2023/10/20 02:53:41;;;;;;;1999.90;999.90;;;8.00;99.90;;;;;;5039945;28;20041;-66
2023/10/20 02:56:15;;;;;;;1999.90;999.90;;;8.00;99.90;;;;;;5006700;28;20044;-66
2023/10/20 02:58:44;;;;;;;1999.90;999.90;;;8.00;99.90;;;;;;5037498;28;20064;-66
2023/10/20 03:01:13;;;;;;;1999.90;999.90;;;8.00;99.90;;;;;;5046120;28;20086;-66
2023/10/20 03:03:39;;;;;;;1999.90;999.90;;;8.00;99.90;;;;;;5047368;28;20424;-65
2023/10/20 03:06:06;;;;;;;1999.90;999.90;;;8.00;99.90;;;;;;5027230;28;20057;-66
2023/10/20 03:08:32;;;;;;;1999.90;999.90;;;8.00;99.90;;;;;;5034467;28;20042;-66
2023/10/20 03:10:58;;;;;;;1999.90;999.90;;;8.00;99.90;;;;;;5032920;28;20486;-66
2023/10/20 03:13:25;;;;;;;1999.90;999.90;;;8.00;99.90;;;;;;5035120;28;20045;-66
2023/10/20 03:15:51;;;;;;;1999.90;999.90;;;8.00;99.90;;;;;;5039571;28;20566;-66
2023/10/20 03:18:17;;;;;;;1999.90;999.90;;;8.00;99.90;;;;;;5048046;28;20045;-66
2023/10/20 03:20:47;;;;;;;1999.90;999.90;;;8.00;99.90;;;;;;5056513;28;20505;-66
2023/10/20 03:23:14;;;;;;;1999.90;999.90;;;8.00;99.90;;;;;;5013426;28;20044;-66
2023/10/20 03:25:40;;;;;;;1999.90;999.90;;;8.00;99.90;;;;;;5044209;28;20068;-66
2023/10/20 03:28:07;;;;;;;1999.90;999.90;;;8.00;99.90;;;;;;5039916;28;20041;-66
2023/10/20 03:30:41;;;;;;;1999.90;999.90;;;8.00;99.90;;;;;;5047310;28;20136;-66
2023/10/20 03:33:08;;;;;;;1999.90;999.90;;;8.00;99.90;;;;;;5046644;28;20166;-66
2023/10/20 03:35:34;;;;;;;1999.90;999.90;;;7.90;99.90;;;;;;5037102;28;20041;-66
2023/10/20 03:38:00;;;;;;;1999.90;999.90;;;8.00;99.90;;;;;;5043822;28;20577;-67
2023/10/20 03:40:30;;;;;;;1999.90;999.90;;;7.90;99.90;;;;;;5038660;28;20037;-66
2023/10/20 03:42:58;;;;;;;1999.90;999.90;;;8.00;99.90;;;;;;5052459;28;20124;-66
2023/10/20 03:45:24;;;;;;;1999.90;999.90;;;8.00;99.90;;;;;;5042900;28;20045;-65
2023/10/20 03:47:50;;;;;;;1999.90;999.90;;;7.90;99.90;;;;;;5042882;28;20130;-65
2023/10/20 03:50:16;;;;;;;1999.90;999.90;;;7.90;99.90;;;;;;5046891;28;20378;-66
2023/10/20 03:52:46;;;;;;;1999.90;999.90;;;7.90;99.90;;;;;;5033753;28;20045;-67
2023/10/20 03:55:15;;;;;;;1999.90;999.90;;;7.90;99.90;;;;;;5045271;28;20157;-66
2023/10/20 03:57:43;;;;;;;1999.90;999.90;;;7.90;99.90;;;;;;5046128;28;20040;-65
2023/10/20 04:00:22;;;;;;;1999.90;999.90;;;7.90;99.90;;;;;;5045397;28;20098;-65
2023/10/20 04:02:48;;;;;;;1999.90;999.90;;;7.90;99.90;;;;;;5057024;28;20501;-66
2023/10/20 04:05:16;;;;;;;1999.90;999.90;;;7.90;99.90;;;;;;5042942;28;20044;-66
2023/10/20 04:07:43;;;;;;;1999.90;999.90;;;7.90;99.90;;;;;;5046918;28;20040;-67
2023/10/20 04:10:08;;;;;;;1999.90;999.90;;;7.90;99.90;;;;;;5056106;28;20444;-66
2023/10/20 04:12:36;;;;;;;1999.90;999.90;;;7.90;99.90;;;;;;5050021;28;20044;-66
2023/10/20 04:15:02;;;;;;;1999.90;999.90;;;7.80;99.90;;;;;;5047982;28;20037;-66
2023/10/20 04:17:28;;;;;;;1999.90;999.90;;;7.90;99.90;;;;;;5049685;28;20561;-66
2023/10/20 04:19:54;;;;;;;1999.90;999.90;;;7.80;99.90;;;;;;5049409;28;20041;-66
2023/10/20 04:22:23;;;;;;;1999.90;999.90;;;7.90;99.90;;;;;;5046802;28;20053;-66
2023/10/20 04:24:48;;;;;;;1999.90;999.90;;;7.80;99.90;;;;;;5061155;28;20054;-66
2023/10/20 04:27:39;;;;;;;1999.90;999.90;;;7.90;99.90;;;;;;5048917;28;20463;-66
2023/10/20 04:44:57;;;;;;;1999.90;999.90;;;7.90;99.90;;;;;;5043637;28;20128;-66
2023/10/20 04:49:28;;;;;;;1999.90;999.90;;;7.80;99.90;;;;;;5063956;28;20044;-66
2023/10/20 04:54:45;;;;;;;1999.90;999.90;;;7.80;99.90;;;;;;5048754;28;20487;-66
2023/10/20 04:59:44;;;;;;;1999.90;999.90;;;7.80;99.90;;;;;;5041857;28;20076;-65
2023/10/20 05:02:24;;;;;;;1999.90;999.90;;;7.80;99.90;;;;;;5044134;28;20064;-66
2023/10/20 05:04:52;;;;;;;1999.90;999.90;;;7.80;99.90;;;;;;5048945;28;20472;-66
2023/10/20 05:07:18;;;;;;;1999.90;999.90;;;7.80;99.90;;;;;;5050204;28;20037;-66
2023/10/20 05:09:45;;;;;;;1999.90;999.90;;;7.80;99.90;;;;;;5048133;28;20147;-66
2023/10/20 05:12:11;;;;;;;1999.90;999.90;;;7.80;99.90;;;;;;5062369;28;20493;-66
2023/10/20 05:14:36;;;;;;;1999.90;999.90;;;7.80;99.90;;;;;;5049111;28;20044;-65
2023/10/20 05:17:03;;;;;;;1999.90;999.90;;;7.80;99.90;;;;;;5040790;28;20124;-66
2023/10/20 05:19:32;;;;;;;1999.90;999.90;;;7.90;99.90;;;;;;5041535;28;20029;-66
2023/10/20 05:21:59;;;;;;;1999.90;999.90;;;7.80;99.90;;;;;;5023003;28;20048;-66
2023/10/20 05:24:25;;;;;;;1999.90;999.90;;;7.90;99.90;;;;;;5045429;28;20080;-66
2023/10/20 05:26:50;;;;;;;1999.90;999.90;;;7.80;99.90;;;;;;5046693;28;20095;-65
2023/10/20 05:29:16;;;;;;;1999.90;999.90;;;7.80;99.90;;;;;;5038995;28;20056;-66
2023/10/20 05:31:41;;;;;;;1999.90;999.90;;;7.90;99.90;;;;;;5028230;28;20041;-66
2023/10/20 05:34:11;;;;;;;1999.90;999.90;;;7.80;99.90;;;;;;5041650;28;20049;-66
2023/10/20 05:36:36;;;;;;;1999.90;999.90;;;7.90;99.90;;;;;;5040136;28;20044;-66
2023/10/20 05:39:02;;;;;;;1999.90;999.90;;;7.90;99.90;;;;;;5032175;28;20538;-66
2023/10/20 05:41:29;;;;;;;1999.90;999.90;;;7.80;99.90;;;;;;5052718;28;20057;-66
2023/10/20 05:43:55;;;;;;;1999.90;999.90;;;7.80;99.90;;;;;;5038729;28;20051;-66
2023/10/20 05:46:21;;;;;;;1999.90;999.90;;;7.90;99.90;;;;;;5043781;28;20029;-65
2023/10/20 05:48:47;;;;;;;1999.90;999.90;;;7.90;99.90;;;;;;5053626;28;20567;-66
2023/10/20 05:51:13;;;;;;;1999.90;999.90;;;7.90;99.90;;;;;;5031381;28;20345;-66
2023/10/20 05:53:39;;;;;;;1999.90;999.90;;;8.00;99.90;;;;;;5023686;28;20048;-66
2023/10/20 05:56:05;;;;;;;1999.90;999.90;;;7.90;99.90;;;;;;5029405;28;20379;-65
2023/10/20 05:58:33;;;;;;;1999.90;999.90;;;7.90;99.90;;;;;;5035040;28;20551;-66
2023/10/20 06:01:11;;;;;;;1999.90;999.90;;;7.90;99.90;;;;;;5048454;28;20112;-66
2023/10/20 06:03:37;;;;;;;1999.90;999.90;;;7.90;99.90;;;;;;5044343;28;20041;-65
2023/10/20 06:06:03;;;;;;;1999.90;999.90;;;7.90;99.90;;;;;;5043129;28;20054;-66
2023/10/20 06:08:30;;;;;;;1999.90;999.90;;;7.90;99.90;;;;;;5033956;28;20107;-66
2023/10/20 06:11:05;;;;;;;1999.90;999.90;;;8.00;99.90;;;;;;5028327;28;20521;-66
2023/10/20 06:13:32;;;;;;;1999.90;999.90;;;7.90;99.90;;;;;;5041027;28;20045;-66
2023/10/20 06:16:08;;;;;;;1999.90;999.90;;;7.90;99.90;;;;;;5049396;28;20482;-65
2023/10/20 06:18:35;;;;;;;1999.90;999.90;;;8.00;99.90;;;;;;5039228;28;20042;-66
2023/10/20 06:21:01;;;;;;;1999.90;999.90;;;8.00;99.90;;;;;;5041345;28;20037;-66
2023/10/20 06:23:26;;;;;;;1999.90;999.90;;;8.00;99.90;;;;;;5028931;28;20515;-66
2023/10/20 06:25:52;;;;;;;1999.90;999.90;;;8.00;99.90;;;;;;5043725;28;20098;-66
2023/10/20 06:28:17;;;;;;;1999.90;999.90;;;8.00;99.90;;;;;;5055124;28;20607;-66
2023/10/20 06:30:44;;;;;;;1999.90;999.90;;;8.00;99.90;;;;;;5055900;28;20072;-66
2023/10/20 06:35:51;;;;;;;1999.90;999.90;;;8.00;99.90;;;;;;5039744;28;20045;-66
2023/10/20 06:38:30;;;;;;;1999.90;999.90;;;8.00;99.90;;;;;;5049406;28;20040;-66
2023/10/20 06:40:57;;;;;;;1999.90;999.90;;;8.00;99.90;;;;;;5040608;28;20064;-66
2023/10/20 06:43:23;;;;;;;1999.90;999.90;;;8.00;99.90;;;;;;5043487;28;20102;-66
2023/10/20 06:45:59;;;;;;;1999.90;999.90;;;8.00;99.90;;;;;;5038974;28;20091;-66
2023/10/20 06:48:29;;;;;;;1999.90;999.90;;;8.00;99.90;;;;;;5044108;28;20516;-66
2023/10/20 06:50:55;;;;;;;1999.90;999.90;;;8.00;99.90;;;;;;5040522;28;20049;-66
2023/10/20 06:53:20;;;;;;;1999.90;999.90;;;8.00;99.90;;;;;;5044829;28;20413;-66
2023/10/20 06:55:46;;;;;;;1999.90;999.90;;;8.00;99.90;;;;;;5045244;28;20036;-66
2023/10/20 06:58:13;;;;;;;1999.90;999.90;;;8.00;99.90;;;;;;5042642;28;20036;-66
2023/10/20 07:00:39;;;;;;;1999.90;999.90;;;8.00;99.90;;;;;;5024417;28;20083;-65
2023/10/20 07:03:04;;;;;;;1999.90;999.90;;;8.00;99.90;;;;;;5039909;28;20134;-66
2023/10/20 07:05:31;;;;;;;1999.90;999.90;;;8.00;99.90;;;;;;5029717;28;20049;-66
2023/10/20 07:07:59;;;;;;;1999.90;999.90;;;8.00;99.90;;;;;;5040284;28;20069;-66
2023/10/20 07:10:25;;;;;;;1999.90;999.90;;;8.00;99.90;;;;;;5043571;28;20145;-66
2023/10/20 07:12:51;;;;;;;1999.90;999.90;;;8.00;99.90;;;;;;5030698;28;20124;-65
2023/10/20 07:15:17;;;;;;;1999.90;999.90;;;8.00;99.90;;;;;;5046460;28;20136;-66
2023/10/20 07:17:43;;;;;;;1999.90;999.90;;;7.90;99.90;;;;;;5047287;28;20049;-65
2023/10/20 07:20:09;;;;;;;1999.90;999.90;;;7.90;99.90;;;;;;5062817;28;20052;-66
2023/10/20 07:22:34;;;;;;;1999.90;999.90;;;7.90;99.90;;;;;;5035272;28;20084;-66
2023/10/20 07:25:00;;;;;;;1999.90;999.90;;;7.90;99.90;;;;;;5047110;28;20404;-66
2023/10/20 07:27:26;;;;;;;1999.90;999.90;;;7.90;99.90;;;;;;5046250;28;20551;-66
2023/10/20 07:29:52;;;;;;;1999.90;999.90;;;7.80;99.90;;;;;;5036148;28;20123;-66
2023/10/20 07:32:17;;;;;;;1999.90;999.90;;;7.80;99.90;;;;;;5047169;28;20131;-65
2023/10/20 07:34:43;;;;;;;1999.90;999.90;;;7.80;99.90;;;;;;5063932;28;20097;-66
2023/10/20 07:37:09;;;;;;;1999.90;999.90;;;7.70;99.90;;;;;;5028523;28;20048;-66
2023/10/20 07:39:34;;;;;;;1999.90;999.90;;;7.70;99.90;;;;;;5043903;28;20045;-66
2023/10/20 07:42:00;;;;;;;1999.90;999.90;;;7.70;99.90;;;;;;5048357;28;20049;-66
2023/10/20 07:44:25;;;;;;;1999.90;999.90;;;7.60;99.90;;;;;;5047546;28;20400;-65
2023/10/20 07:46:51;;;;;;;1999.90;999.90;;;7.60;99.90;;;;;;5030686;28;20072;-65
2023/10/20 07:49:17;;;;;;;1999.90;999.90;;;7.60;99.90;;;;;;5046867;28;20131;-65
2023/10/20 07:51:43;;;;;;;1999.90;999.90;;;7.60;99.90;;;;;;5030729;28;20045;-66
2023/10/20 07:54:09;;;;;;;1999.90;999.90;;;7.60;99.90;;;;;;5045665;28;20094;-66
2023/10/20 07:56:35;;;;;;;1999.90;999.90;;;7.60;99.90;;;;;;5045291;28;20029;-65
2023/10/20 07:59:01;;;;;;;1999.90;999.90;;;7.60;99.90;;;;;;5030548;28;20060;-65
2023/10/20 08:01:27;;;;;;;1999.90;999.90;;;7.50;99.90;;;;;;5041661;28;20037;-66
2023/10/20 08:03:52;;;;;;;1999.90;999.90;;;7.50;99.90;;;;;;5029656;28;20087;-66
2023/10/20 08:06:19;;;;;;;1999.90;999.90;;;7.50;99.90;;;;;;5039156;28;20409;-66
2023/10/20 08:08:45;;;;;;;1999.90;999.90;;;7.50;99.90;;;;;;5031637;28;20040;-65
2023/10/20 08:11:11;;;;;;;1999.90;999.90;;;7.50;99.90;;;;;;5038393;28;20037;-66
2023/10/20 08:13:40;;;;;;;1999.90;999.90;;;7.40;99.90;;;;;;5046125;28;20053;-65
2023/10/20 08:16:06;;;;;;;1999.90;999.90;;;7.40;99.90;;;;;;5039956;28;20107;-65
2023/10/20 08:18:36;;;;;;;1999.90;999.90;;;7.40;99.90;;;;;;5047292;28;20116;-66
2023/10/20 08:21:07;;;;;;;1999.90;999.90;;;7.40;99.90;;;;;;5036174;28;20033;-66
2023/10/20 08:23:37;;;;;;;1999.90;999.90;;;7.40;99.90;;;;;;5044958;28;20103;-66
2023/10/20 08:26:05;;;;;;;1999.90;999.90;;;7.40;99.90;;;;;;5046532;28;20508;-67
2023/10/20 08:28:31;;;;;;;1999.90;999.90;;;7.40;99.90;;;;;;5034740;28;20040;-66
2023/10/20 08:31:07;;;;;;;1999.90;999.90;;;7.40;99.90;;;;;;5044397;28;20040;-67
2023/10/20 08:33:33;;;;;;;1999.90;999.90;;;7.40;99.90;;;;;;5040900;28;20144;-66
2023/10/20 08:36:07;;;;;;;1999.90;999.90;;;7.40;99.90;;;;;;5045934;28;20045;-66
2023/10/20 08:38:33;;;;;;;;;;;7.40;99.90;;;;;;5045856;28;20037;-66
2023/10/20 08:40:59;;;;;;;1999.90;999.90;;;7.40;99.90;;;;;;5045341;28;20502;-66
2023/10/20 08:43:25;;;;;;;1999.90;999.90;;;7.40;99.90;;;;;;5027459;28;20713;-66
2023/10/20 08:45:52;;;;;;;1999.90;999.90;;;7.40;99.90;;;;;;5034166;28;20085;-66
2023/10/20 08:48:18;;;;;;;1999.90;999.90;;;7.30;99.90;;;;;;5025367;28;20132;-65
2023/10/20 08:50:46;;;;;;;1999.90;999.90;;;7.30;99.90;;;;;;5041548;28;20560;-66
2023/10/20 08:53:14;;;;;;;1999.90;999.90;;;7.30;99.90;;;;;;5044075;28;20481;-66
2023/10/20 08:55:40;;;;;;;1999.90;999.90;;;7.30;99.90;;;;;;5050361;28;20558;-66
2023/10/20 08:58:06;;;;;;;1999.90;999.90;;;7.30;99.90;;;;;;5058354;28;20041;-66
2023/10/20 09:00:32;;;;;;;1999.90;999.90;;;7.30;99.90;;;;;;5040760;28;20051;-66
2023/10/20 09:02:59;;;;;;;1999.90;999.90;;;7.30;99.90;;;;;;5056634;28;20139;-65
2023/10/20 09:05:26;;;;;;;1999.90;999.90;;;7.30;99.90;;;;;;5049641;28;20090;-66
2023/10/20 09:07:59;;;;;;;1999.90;999.90;;;7.30;99.90;;;;;;5048332;28;20546;-66
2023/10/20 09:10:25;;;;;;;1999.90;999.90;;;7.20;99.90;;;;;;5048263;28;20065;-66
2023/10/20 09:12:51;;;;;;;1999.90;999.90;;;7.30;99.90;;;;;;5031879;28;20034;-66
2023/10/20 09:15:17;;;;;;;1999.90;999.90;;;7.20;99.90;;;;;;5049650;28;20083;-65
2023/10/20 09:17:44;;;;;;;1999.90;999.90;;;7.20;99.90;;;;;;5029025;28;20052;-65
2023/10/20 09:20:14;;;;;;;1999.90;999.90;;;7.20;99.90;;;;;;5030244;28;20122;-65
2023/10/20 09:22:41;;;;;;;1999.90;999.90;;;7.20;99.90;;;;;;5049697;28;20484;-65
2023/10/20 09:25:11;;;;;;;1999.90;999.90;;;7.20;99.90;;;;;;5049927;28;20053;-65
2023/10/20 09:27:40;;;;;;;1999.90;999.90;;;7.10;99.90;;;;;;5048967;28;20040;-66
2023/10/20 09:30:10;;;;;;;1999.90;999.90;;;7.10;99.90;;;;;;5063742;28;20044;-65
2023/10/20 09:32:37;;;;;;;1999.90;999.90;;;7.10;99.90;;;;;;5065766;28;20111;-65
2023/10/20 09:35:04;;;;;;;1999.90;999.90;;;7.10;99.90;;;;;;5049628;28;20730;-66
2023/10/20 09:37:30;;;;;;;1999.90;999.90;;;7.10;99.90;;;;;;5048932;28;20051;-66
2023/10/20 09:40:07;;;;;;;1999.90;999.90;;;7.10;99.90;;;;;;5049201;28;20048;-66
2023/10/20 09:43:12;;;;;;;1999.90;999.90;;;7.10;99.90;;;;;;5032030;28;20059;-65
2023/10/20 09:45:43;;;;;;;1999.90;999.90;;;7.10;99.90;;;;;;5038983;28;20153;-65
2023/10/20 09:48:19;;;;;;;1999.90;999.90;;;7.10;99.90;;;;;;5046787;28;20051;-65
2023/10/20 09:50:49;;;;;;;1999.90;999.90;;;7.00;99.90;;;;;;5041061;28;20122;-65
2023/10/20 09:53:16;;;;;;;1999.90;999.90;;;7.00;99.90;;;;;;5048213;28;20064;-65
2023/10/20 09:55:47;;;;;;;1999.90;999.90;;;7.10;99.90;;;;;;5048823;28;20106;-66
2023/10/20 09:58:23;;;;;;;1999.90;999.90;;;7.10;99.90;;;;;;5047779;28;20413;-65
2023/10/20 10:00:50;;;;;;;1999.90;999.90;;;7.10;99.90;;;;;;5041824;28;20051;-65
2023/10/20 10:03:27;;;;;;;1999.90;999.90;;;7.00;99.90;;;;;;5044656;28;20447;-65
2023/10/20 10:05:53;;;;;;;1999.90;999.90;;;7.00;99.90;;;;;;5038056;28;20674;-66
2023/10/20 10:08:20;;;;;;;1999.90;999.90;;;7.00;99.90;;;;;;5047090;28;20045;-66
2023/10/20 10:10:48;;;;;;;1999.90;999.90;;;7.00;99.90;;;;;;5049034;28;20041;-65
2023/10/20 10:13:13;;;;;;;1999.90;999.90;;;7.00;99.90;;;;;;5030740;28;20151;-65
2023/10/20 10:15:46;;;;;;;1999.90;999.90;;;7.00;99.90;;;;;;5049176;28;20047;-65
2023/10/20 10:18:15;;;;;;;1999.90;999.90;;;7.00;99.90;;;;;;5048583;28;20045;-65
2023/10/20 10:20:47;;;;;;;1999.90;999.90;;;7.00;99.90;;;;;;5048822;28;20037;-65
2023/10/20 10:23:16;;;;;;;1999.90;999.90;;;7.00;99.90;;;;;;5027438;28;20105;-65
2023/10/20 10:25:47;;;;;;;1999.90;999.90;;;7.00;99.90;;;;;;5047766;28;20512;-65
2023/10/20 10:28:14;;;;;;;1999.90;999.90;;;7.00;99.90;;;;;;5052395;28;20044;-65
2023/10/20 10:30:41;;;;;;;1999.90;999.90;;;6.90;99.90;;;;;;5038761;28;20049;-65
2023/10/20 10:33:10;;;;;;;1999.90;999.90;;;6.90;99.90;;;;;;5031338;28;20048;-66
2023/10/20 10:35:40;;;;;;;1999.90;999.90;;;6.90;99.90;;;;;;5035901;28;20037;-66
2023/10/20 10:38:21;;;;;;;1999.90;999.90;;;6.90;99.90;;;;;;5035898;28;20041;-66
2023/10/20 10:40:51;;;;;;;1999.90;999.90;;;6.90;99.90;;;;;;5044745;28;20049;-65
2023/10/20 10:43:19;;;;;;;1999.90;999.90;;;6.90;99.90;;;;;;5037771;28;20052;-65
2023/10/20 10:45:50;;;;;;;1999.90;999.90;;;6.80;99.90;;;;;;5037411;28;20102;-65
2023/10/20 10:48:16;;;;;;;1999.90;999.90;;;6.90;99.90;;;;;;5031785;28;20129;-65
2023/10/20 10:50:43;;;;;;;1999.90;999.90;;;6.80;99.90;;;;;;5030774;28;20489;-66
2023/10/20 10:53:10;;;;;;;1999.90;999.90;;;6.90;99.90;;;;;;5041706;28;20041;-66
2023/10/20 10:55:36;;;;;;;1999.90;999.90;;;6.80;99.90;;;;;;5042649;28;20160;-65
2023/10/20 10:58:10;;;;;;;1999.90;999.90;;;6.80;99.90;;;;;;5043220;28;20064;-66
2023/10/20 11:00:38;;;;;;;1999.90;999.90;;;6.80;99.90;;;;;;5041193;28;20498;-66
2023/10/20 11:03:05;;;;;;;1999.90;999.90;;;6.80;99.90;;;;;;5033127;28;20159;-65
2023/10/20 11:05:33;;;;;;;1999.90;999.90;;;6.80;99.90;;;;;;5039118;28;20068;-66
2023/10/20 11:08:07;;;;;;;1999.90;999.90;;;6.80;99.90;;;;;;5039045;28;20119;-66
2023/10/20 11:10:41;;;;;;;1999.90;999.90;;;6.80;99.90;;;;;;5018542;28;20491;-66
2023/10/20 11:13:10;;;;;;;1999.90;999.90;;;6.80;99.90;;;;;;5015568;28;20052;-68
2023/10/20 11:15:37;;;;;;;1999.90;999.90;;;6.80;99.90;;;;;;5024835;28;20435;-67
2023/10/20 11:18:04;;;;;;;1999.90;999.90;;;6.80;99.90;;;;;;5049422;28;20161;-67
2023/10/20 11:20:43;;;;;;;1999.90;999.90;;;6.80;99.90;;;;;;5034150;28;20041;-67
2023/10/20 11:23:14;;;;;;;1999.90;999.90;;;6.90;99.90;;;;;;5035549;28;20083;-65
2023/10/20 11:25:43;;;;;;;1999.90;999.90;;;6.80;99.90;;;;;;5018200;28;20097;-66
2023/10/20 11:28:08;;;;;;;1999.90;999.90;;;6.80;99.90;;;;;;5045341;28;20029;-66
2023/10/20 11:30:38;;;;;;;1999.90;999.90;;;6.90;99.90;;;;;;5038998;28;20455;-65
2023/10/20 11:33:04;;;;;;;1999.90;999.90;;;6.90;99.90;;;;;;5026232;28;20053;-66
2023/10/20 11:35:32;;;;;;;1999.90;999.90;;;6.80;99.90;;;;;;5036821;28;20041;-65
2023/10/20 11:37:58;;;;;;;1999.90;999.90;;;6.80;99.90;;;;;;5041610;28;20036;-66
2023/10/20 11:40:28;;;;;;;1999.90;999.90;;;6.80;99.90;;;;;;5045079;28;20048;-66
2023/10/20 11:42:53;;;;;;;1999.90;999.90;;;6.80;99.90;;;;;;5043985;28;20056;-66
2023/10/20 11:45:20;;;;;;;1999.90;999.90;;;6.80;99.90;;;;;;5040379;28;20048;-65
2023/10/20 11:47:46;;;;;;;1999.90;999.90;;;6.80;99.90;;;;;;5023624;28;20049;-66
2023/10/20 11:50:12;;;;;;;1999.90;999.90;;;6.80;99.90;;;;;;5040182;28;20410;-66
2023/10/20 11:52:39;;;;;;;1999.90;999.90;;;6.80;99.90;;;;;;5042740;28;20041;-66
2023/10/20 11:55:08;;;;;;;1999.90;999.90;;;6.80;99.90;;;;;;5029193;28;20147;-65
2023/10/20 11:57:38;;;;;;;1999.90;999.90;;;6.80;99.90;;;;;;5045227;28;20449;-66
2023/10/20 12:00:09;;;;;;;1999.90;999.90;;;6.80;99.90;;;;;;5033753;28;20454;-65
2023/10/20 12:02:35;;;;;;;1999.90;999.90;;;6.80;99.90;;;;;;5039006;28;20140;-66
2023/10/20 12:05:00;;;;;;;1999.90;999.90;;;6.80;99.90;;;;;;5036910;28;20117;-66
2023/10/20 12:07:27;;;;;;;1999.90;999.90;;;6.80;99.90;;;;;;5052993;28;20041;-66
2023/10/20 12:09:53;;;;;;;1999.90;999.90;;;6.80;99.90;;;;;;5039377;28;20052;-65
2023/10/20 12:12:19;;;;;;;1999.90;999.90;;;6.90;99.90;;;;;;5034766;28;20045;-66
2023/10/20 12:14:45;;;;;;;1999.90;999.90;;;6.80;99.90;;;;;;5048081;28;20078;-65
2023/10/20 12:17:11;;;;;;;1999.90;999.90;;;6.80;99.90;;;;;;5033353;28;20120;-66
2023/10/20 12:19:38;;;;;;;1999.90;999.90;;;6.80;99.90;;;;;;5030982;28;20136;-66
2023/10/20 12:22:04;;;;;;;1999.90;999.90;;;6.90;99.90;;;;;;5038845;28;20076;-66
2023/10/20 12:24:30;;;;;;;1999.90;999.90;;;6.80;99.90;;;;;;5025177;28;20536;-66
2023/10/20 12:26:56;;;;;;;1999.90;999.90;;;6.80;99.90;;;;;;5040615;28;20123;-65
2023/10/20 12:29:22;;;;;;;1999.90;999.90;;;6.80;99.90;;;;;;5044415;28;20413;-65
2023/10/20 12:31:48;;;;;;;1999.90;999.90;;;6.80;99.90;;;;;;5031195;28;20390;-67
2023/10/20 12:34:14;;;;;;;1999.90;999.90;;;6.80;99.90;;;;;;5043570;28;20038;-67